ADDS METAR Data INFO
IDs: Format: Raw Decoded Include TAF

Data at: 1958 UTC 15 Dec 2017

KCVO 151956Z AUTO 00000KT 10SM OVC016 02/00 A3031 RMK AO2 RAE48UPB08E12 SLP266 P0000 T00170000 FZRANO
KCVO 151856Z AUTO 17003KT 10SM -RA OVC016 01/00 A3031 RMK AO2 RAB48 SLP269 P0000 T00110000 FZRANO
KCVO 151814Z AUTO 14003KT 10SM BKN016 OVC039 01/M01 A3032 RMK AO2 FZRANO
KCVO 151756Z AUTO 00000KT 10SM FEW020 OVC037 01/00 A3032 RMK AO2 SLP270 T00110000 10011 21028 53017 FZRANO
KCVO 151656Z AUTO 13005KT 10SM SCT029 OVC035 00/M01 A3028 RMK AO2 SLP259 T00001011 FZRANO
KCVO 151556Z AUTO 00000KT 10SM OVC038 M01/M01 A3027 RMK AO2 SLP256 T10061011 FZRANO
KCVO 151456Z AUTO 00000KT 10SM BKN070 M02/M02 A3027 RMK AO2 SLP255 T10171022 57002 FZRANO
KCVO 151356Z AUTO 00000KT 10SM CLR M02/M03 A3027 RMK AO2 SLP255 T10221028 FZRANO
KCVO 151256Z AUTO 00000KT 10SM CLR M02/M02 A3028 RMK AO2 SLP256 T10221022 FZRANO
KCVO 151156Z AUTO 24003KT 10SM CLR M02/M03 A3028 RMK AO2 SLP256 T10221028 11017 21028 50000 FZRANO
KCVO 151056Z AUTO 00000KT 10SM CLR M02/M03 A3028 RMK AO2 SLP256 T10221028 FZRANO
KCVO 150956Z AUTO 00000KT 10SM CLR M02/M02 A3028 RMK AO2 SLP256 T10171022 FZRANO
KCVO 150856Z AUTO 00000KT 10SM CLR M02/M03 A3028 RMK AO2 SLP255 T10221028 58002 FZRANO
KCVO 150756Z AUTO 00000KT 10SM CLR M02/M03 A3029 RMK AO2 SLP260 T10221028 400781044 FZRANO
KCVO 150656Z AUTO 00000KT 10SM CLR M02/M03 A3028 RMK AO2 SLP258 T10221028 FZRANO
KCVO 150556Z AUTO 00000KT 10SM CLR M02/M02 A3028 RMK AO2 SLP257 T10171022 10061 21022 50000 FZRANO
KCVO 150456Z AUTO 00000KT 10SM CLR M02/M03 A3029 RMK AO2 SLP260 T10171028 FZRANO
KCVO 150356Z AUTO 00000KT 10SM CLR M02/M03 A3029 RMK AO2 SLP262 T10171033 FZRANO
KCVO 150256Z AUTO 00000KT 10SM CLR 00/M02 A3028 RMK AO2 SLP257 T00001017 50000 FZRANO
KCVO 150156Z AUTO 27003KT 10SM CLR 01/M01 A3029 RMK AO2 SLP260 T00111006 FZRANO
KCVO 150056Z AUTO 18004KT 10SM CLR 03/01 A3028 RMK AO2 SLP257 T00330006
KCVO 142356Z AUTO 00000KT 10SM CLR 06/M01 A3028 RMK AO2 SLP257 T00611006 10078 20028 55004
KCVO 142256Z AUTO 05006KT 10SM CLR 07/M01 A3028 RMK AO2 SLP255 T00671006
KCVO 142156Z AUTO 05007KT 10SM CLR 07/00 A3029 RMK AO2 SLP261 T00720000
KCVO 142056Z AUTO 00000KT 10SM CLR 06/00 A3029 RMK AO2 SLP261 T00610000 58015
KCVO 141956Z AUTO 08005KT 10SM CLR 06/00 A3032 RMK AO2 SLP269 T00560000
KCVO 141856Z AUTO 04003KT 10SM CLR 04/M01 A3033 RMK AO2 SLP275 T00441006
KCVO 141756Z AUTO 00000KT 10SM CLR 03/01 A3034 RMK AO2 SLP277 T00330011 10033 21044 50004
KCVO 141556Z AUTO 00000KT 10SM CLR M04/M06 A3033 RMK AO2 SLP274 T10441056 FZRANO
KCVO 141456Z AUTO 22003KT 10SM CLR M04/M05 A3033 RMK AO2 SLP273 T10391050 53003 FZRANO
KCVO 141356Z AUTO 32003KT 10SM CLR M04/M04 A3032 RMK AO2 SLP270 T10391044 FZRANO
KCVO 141256Z AUTO 00000KT 10SM CLR M04/M04 A3032 RMK AO2 SLP270 T10391044 FZRANO
KCVO 141156Z AUTO 00000KT 10SM CLR M04/M05 A3032 RMK AO2 SLP269 T10441050 11028 21044 55001 FZRANO
KCVO 141056Z AUTO 00000KT 10SM CLR M03/M04 A3032 RMK AO2 SLP269 T10331044 FZRANO
KCVO 140956Z AUTO 29003KT 10SM CLR M04/M04 A3032 RMK AO2 SLP270 T10391044 FZRANO
KCVO 140856Z AUTO 00000KT 10SM CLR M03/M04 A3032 RMK AO2 SLP270 T10331039 58001 FZRANO